Terminal Aerodrome Forecast
Issued by NWS Wilmington, OH

Current Version | Previous Version | Graphics & Text | Print | Product List | Glossary On
Versions: 1 2 3 4 5 6 7 8 9 10 11 12 13 14 15 16 17 18 19 20 21
037
FTUS41 KILN 191610 AAB
TAFDAY
TAF AMD
KDAY 191610Z 1916/2012 28012G22KT P6SM OVC025
      TEMPO 1916/1918 BKN015
     FM192300 28010KT P6SM SCT035
     FM200600 25008KT P6SM SKC
     FM201000 21008KT P6SM SKC=

USA.gov is the U.S. government's official web portal to all federal, state and local government web resources and services.